sensor_id;sensor_type;location;lat;lon;timestamp;P1;durP1;ratioP1;P2;durP2;ratioP2
11614;SDS011;5863;52.832;4.758;2022-09-12T00:01:14;11.85;;;10.75;;
11614;SDS011;5863;52.832;4.758;2022-09-12T00:03:43;12.77;;;10.88;;
11614;SDS011;5863;52.832;4.758;2022-09-12T00:06:11;13.60;;;12.20;;
11614;SDS011;5863;52.832;4.758;2022-09-12T00:08:41;12.05;;;10.85;;
11614;SDS011;5863;52.832;4.758;2022-09-12T00:11:09;13.07;;;11.13;;
11614;SDS011;5863;52.832;4.758;2022-09-12T00:13:37;13.27;;;11.85;;
11614;SDS011;5863;52.832;4.758;2022-09-12T00:16:05;14.05;;;11.90;;
11614;SDS011;5863;52.832;4.758;2022-09-12T00:18:33;12.98;;;11.55;;
11614;SDS011;5863;52.832;4.758;2022-09-12T00:21:03;12.18;;;10.98;;
11614;SDS011;5863;52.832;4.758;2022-09-12T00:23:30;12.23;;;10.70;;
11614;SDS011;5863;52.832;4.758;2022-09-12T00:25:58;12.52;;;11.25;;
11614;SDS011;5863;52.832;4.758;2022-09-12T00:28:26;13.15;;;11.07;;
11614;SDS011;5863;52.832;4.758;2022-09-12T00:30:53;11.55;;;10.38;;
11614;SDS011;5863;52.832;4.758;2022-09-12T00:33:20;13.75;;;11.50;;
11614;SDS011;5863;52.832;4.758;2022-09-12T00:35:48;12.95;;;11.60;;
11614;SDS011;5863;52.832;4.758;2022-09-12T00:38:17;13.50;;;11.48;;
11614;SDS011;5863;52.832;4.758;2022-09-12T00:40:44;12.80;;;11.50;;
11614;SDS011;5863;52.832;4.758;2022-09-12T00:43:12;12.80;;;11.00;;
11614;SDS011;5863;52.832;4.758;2022-09-12T00:45:41;12.48;;;11.30;;
11614;SDS011;5863;52.832;4.758;2022-09-12T00:48:13;12.80;;;11.55;;
11614;SDS011;5863;52.832;4.758;2022-09-12T00:50:46;12.93;;;10.75;;
11614;SDS011;5863;52.832;4.758;2022-09-12T00:53:14;13.38;;;11.85;;
11614;SDS011;5863;52.832;4.758;2022-09-12T00:55:42;13.32;;;11.32;;
11614;SDS011;5863;52.832;4.758;2022-09-12T00:58:13;12.98;;;11.57;;
11614;SDS011;5863;52.832;4.758;2022-09-12T01:00:46;12.30;;;11.10;;
11614;SDS011;5863;52.832;4.758;2022-09-12T01:03:15;14.73;;;11.90;;
11614;SDS011;5863;52.832;4.758;2022-09-12T01:05:45;15.93;;;11.90;;
11614;SDS011;5863;52.832;4.758;2022-09-12T01:08:18;13.30;;;11.57;;
11614;SDS011;5863;52.832;4.758;2022-09-12T01:10:46;12.45;;;10.38;;
11614;SDS011;5863;52.832;4.758;2022-09-12T01:13:13;12.13;;;10.93;;
11614;SDS011;5863;52.832;4.758;2022-09-12T01:15:40;16.55;;;11.45;;
11614;SDS011;5863;52.832;4.758;2022-09-12T01:18:10;12.60;;;11.48;;
11614;SDS011;5863;52.832;4.758;2022-09-12T01:20:49;13.20;;;11.80;;
11614;SDS011;5863;52.832;4.758;2022-09-12T01:23:32;14.93;;;11.75;;
11614;SDS011;5863;52.832;4.758;2022-09-12T01:26:36;15.43;;;12.68;;
11614;SDS011;5863;52.832;4.758;2022-09-12T01:29:30;14.90;;;12.02;;
11614;SDS011;5863;52.832;4.758;2022-09-12T01:32:13;15.38;;;12.13;;
11614;SDS011;5863;52.832;4.758;2022-09-12T01:34:50;14.95;;;13.05;;
11614;SDS011;5863;52.832;4.758;2022-09-12T01:37:25;15.40;;;12.80;;
11614;SDS011;5863;52.832;4.758;2022-09-12T01:39:59;14.70;;;13.10;;
11614;SDS011;5863;52.832;4.758;2022-09-12T01:42:30;15.02;;;13.32;;
11614;SDS011;5863;52.832;4.758;2022-09-12T01:45:06;15.82;;;13.80;;
11614;SDS011;5863;52.832;4.758;2022-09-12T01:47:40;17.52;;;14.52;;
11614;SDS011;5863;52.832;4.758;2022-09-12T01:50:09;16.80;;;14.15;;
11614;SDS011;5863;52.832;4.758;2022-09-12T01:52:41;18.10;;;14.15;;
11614;SDS011;5863;52.832;4.758;2022-09-12T01:55:15;16.05;;;14.38;;
11614;SDS011;5863;52.832;4.758;2022-09-12T01:57:45;16.10;;;14.32;;
11614;SDS011;5863;52.832;4.758;2022-09-12T02:00:16;15.88;;;14.25;;
11614;SDS011;5863;52.832;4.758;2022-09-12T02:02:46;16.60;;;14.18;;
11614;SDS011;5863;52.832;4.758;2022-09-12T02:05:19;17.33;;;14.75;;
11614;SDS011;5863;52.832;4.758;2022-09-12T02:07:51;19.70;;;14.95;;
11614;SDS011;5863;52.832;4.758;2022-09-12T02:10:23;22.27;;;15.27;;
11614;SDS011;5863;52.832;4.758;2022-09-12T02:12:55;18.67;;;15.73;;
11614;SDS011;5863;52.832;4.758;2022-09-12T02:15:26;17.92;;;15.32;;
11614;SDS011;5863;52.832;4.758;2022-09-12T02:17:59;20.27;;;16.88;;
11614;SDS011;5863;52.832;4.758;2022-09-12T02:20:30;17.30;;;15.23;;
11614;SDS011;5863;52.832;4.758;2022-09-12T02:23:00;19.48;;;16.42;;
11614;SDS011;5863;52.832;4.758;2022-09-12T02:25:31;19.80;;;16.30;;
11614;SDS011;5863;52.832;4.758;2022-09-12T02:28:00;19.60;;;17.00;;
11614;SDS011;5863;52.832;4.758;2022-09-12T02:30:33;19.65;;;16.95;;
11614;SDS011;5863;52.832;4.758;2022-09-12T02:33:14;21.23;;;17.42;;
11614;SDS011;5863;52.832;4.758;2022-09-12T02:35:51;20.63;;;16.80;;
11614;SDS011;5863;52.832;4.758;2022-09-12T02:38:23;20.05;;;17.95;;
11614;SDS011;5863;52.832;4.758;2022-09-12T02:40:53;21.10;;;17.90;;
11614;SDS011;5863;52.832;4.758;2022-09-12T02:43:19;20.60;;;18.05;;
11614;SDS011;5863;52.832;4.758;2022-09-12T02:45:46;19.92;;;17.75;;
11614;SDS011;5863;52.832;4.758;2022-09-12T02:48:15;22.10;;;17.35;;
11614;SDS011;5863;52.832;4.758;2022-09-12T02:50:46;23.67;;;18.75;;
11614;SDS011;5863;52.832;4.758;2022-09-12T02:53:13;22.40;;;18.88;;
11614;SDS011;5863;52.832;4.758;2022-09-12T02:55:41;23.90;;;19.08;;
11614;SDS011;5863;52.832;4.758;2022-09-12T02:58:09;23.00;;;19.15;;
11614;SDS011;5863;52.832;4.758;2022-09-12T03:00:43;23.90;;;19.00;;
11614;SDS011;5863;52.832;4.758;2022-09-12T03:03:24;23.58;;;19.23;;
11614;SDS011;5863;52.832;4.758;2022-09-12T03:06:01;21.00;;;18.75;;
11614;SDS011;5863;52.832;4.758;2022-09-12T03:08:38;23.95;;;18.48;;
11614;SDS011;5863;52.832;4.758;2022-09-12T03:11:27;24.20;;;19.15;;
11614;SDS011;5863;52.832;4.758;2022-09-12T03:14:06;23.45;;;18.80;;
11614;SDS011;5863;52.832;4.758;2022-09-12T03:16:43;23.45;;;19.25;;
11614;SDS011;5863;52.832;4.758;2022-09-12T03:19:28;23.65;;;18.50;;
11614;SDS011;5863;52.832;4.758;2022-09-12T03:22:02;25.60;;;19.25;;
11614;SDS011;5863;52.832;4.758;2022-09-12T03:24:35;23.67;;;19.73;;
11614;SDS011;5863;52.832;4.758;2022-09-12T03:27:09;22.45;;;17.70;;
11614;SDS011;5863;52.832;4.758;2022-09-12T03:29:40;21.23;;;18.70;;
11614;SDS011;5863;52.832;4.758;2022-09-12T03:32:10;23.20;;;18.08;;
11614;SDS011;5863;52.832;4.758;2022-09-12T03:34:38;24.20;;;19.65;;
11614;SDS011;5863;52.832;4.758;2022-09-12T03:37:05;24.30;;;19.55;;
11614;SDS011;5863;52.832;4.758;2022-09-12T03:39:31;22.08;;;18.13;;
11614;SDS011;5863;52.832;4.758;2022-09-12T03:41:58;22.67;;;19.60;;
11614;SDS011;5863;52.832;4.758;2022-09-12T03:44:25;23.08;;;19.00;;
11614;SDS011;5863;52.832;4.758;2022-09-12T03:46:52;21.58;;;18.52;;
11614;SDS011;5863;52.832;4.758;2022-09-12T03:49:19;22.70;;;18.40;;
11614;SDS011;5863;52.832;4.758;2022-09-12T03:51:47;25.23;;;19.17;;
11614;SDS011;5863;52.832;4.758;2022-09-12T03:54:13;23.23;;;18.77;;
11614;SDS011;5863;52.832;4.758;2022-09-12T03:56:40;22.63;;;17.98;;
11614;SDS011;5863;52.832;4.758;2022-09-12T03:59:07;21.42;;;18.38;;
11614;SDS011;5863;52.832;4.758;2022-09-12T04:01:34;22.55;;;18.52;;
11614;SDS011;5863;52.832;4.758;2022-09-12T04:04:01;23.35;;;18.65;;
11614;SDS011;5863;52.832;4.758;2022-09-12T04:06:28;23.15;;;18.92;;
11614;SDS011;5863;52.832;4.758;2022-09-12T04:08:58;23.42;;;18.10;;
11614;SDS011;5863;52.832;4.758;2022-09-12T04:11:25;21.90;;;18.40;;
11614;SDS011;5863;52.832;4.758;2022-09-12T04:13:52;21.25;;;17.90;;
11614;SDS011;5863;52.832;4.758;2022-09-12T04:16:19;20.27;;;16.60;;
11614;SDS011;5863;52.832;4.758;2022-09-12T04:18:45;23.42;;;18.75;;
11614;SDS011;5863;52.832;4.758;2022-09-12T04:21:13;20.48;;;18.23;;
11614;SDS011;5863;52.832;4.758;2022-09-12T04:23:42;21.65;;;18.23;;
11614;SDS011;5863;52.832;4.758;2022-09-12T04:26:10;21.63;;;17.98;;
11614;SDS011;5863;52.832;4.758;2022-09-12T04:28:38;22.17;;;17.42;;
11614;SDS011;5863;52.832;4.758;2022-09-12T04:31:06;20.20;;;17.00;;
11614;SDS011;5863;52.832;4.758;2022-09-12T04:33:34;21.55;;;17.05;;
11614;SDS011;5863;52.832;4.758;2022-09-12T04:36:02;23.20;;;18.65;;
11614;SDS011;5863;52.832;4.758;2022-09-12T04:38:30;20.98;;;17.40;;
11614;SDS011;5863;52.832;4.758;2022-09-12T04:40:59;23.80;;;17.35;;
11614;SDS011;5863;52.832;4.758;2022-09-12T04:43:28;22.52;;;16.85;;
11614;SDS011;5863;52.832;4.758;2022-09-12T04:45:54;22.65;;;17.27;;
11614;SDS011;5863;52.832;4.758;2022-09-12T04:48:21;21.40;;;17.58;;
11614;SDS011;5863;52.832;4.758;2022-09-12T04:50:48;19.60;;;17.27;;
11614;SDS011;5863;52.832;4.758;2022-09-12T04:53:14;20.25;;;17.20;;
11614;SDS011;5863;52.832;4.758;2022-09-12T04:55:41;22.08;;;17.52;;
11614;SDS011;5863;52.832;4.758;2022-09-12T04:58:08;23.75;;;18.63;;
11614;SDS011;5863;52.832;4.758;2022-09-12T05:00:36;20.75;;;18.05;;
11614;SDS011;5863;52.832;4.758;2022-09-12T05:03:02;23.40;;;17.45;;
11614;SDS011;5863;52.832;4.758;2022-09-12T05:05:29;21.73;;;17.65;;
11614;SDS011;5863;52.832;4.758;2022-09-12T05:07:56;19.10;;;17.05;;
11614;SDS011;5863;52.832;4.758;2022-09-12T05:10:22;23.92;;;18.27;;
11614;SDS011;5863;52.832;4.758;2022-09-12T05:12:49;22.45;;;17.73;;
11614;SDS011;5863;52.832;4.758;2022-09-12T05:15:16;22.30;;;18.90;;
11614;SDS011;5863;52.832;4.758;2022-09-12T05:17:44;22.58;;;18.63;;
11614;SDS011;5863;52.832;4.758;2022-09-12T05:20:11;21.77;;;18.08;;
11614;SDS011;5863;52.832;4.758;2022-09-12T05:22:37;23.90;;;19.98;;
11614;SDS011;5863;52.832;4.758;2022-09-12T05:25:05;25.98;;;20.17;;
11614;SDS011;5863;52.832;4.758;2022-09-12T05:27:32;25.45;;;20.15;;
11614;SDS011;5863;52.832;4.758;2022-09-12T05:29:59;23.52;;;19.70;;
11614;SDS011;5863;52.832;4.758;2022-09-12T05:32:29;26.38;;;20.13;;
11614;SDS011;5863;52.832;4.758;2022-09-12T05:34:58;25.85;;;19.67;;
11614;SDS011;5863;52.832;4.758;2022-09-12T05:37:25;26.13;;;19.50;;
11614;SDS011;5863;52.832;4.758;2022-09-12T05:39:53;23.75;;;19.67;;
11614;SDS011;5863;52.832;4.758;2022-09-12T05:42:21;24.60;;;19.05;;
11614;SDS011;5863;52.832;4.758;2022-09-12T05:44:47;25.55;;;19.38;;
11614;SDS011;5863;52.832;4.758;2022-09-12T05:47:14;27.85;;;19.42;;
11614;SDS011;5863;52.832;4.758;2022-09-12T05:49:41;26.20;;;20.23;;
11614;SDS011;5863;52.832;4.758;2022-09-12T05:52:10;25.13;;;19.15;;
11614;SDS011;5863;52.832;4.758;2022-09-12T05:54:37;25.98;;;19.73;;
11614;SDS011;5863;52.832;4.758;2022-09-12T05:57:04;27.10;;;20.52;;
11614;SDS011;5863;52.832;4.758;2022-09-12T05:59:31;26.58;;;19.55;;
11614;SDS011;5863;52.832;4.758;2022-09-12T06:01:58;25.48;;;19.77;;
11614;SDS011;5863;52.832;4.758;2022-09-12T06:04:24;27.38;;;21.08;;
11614;SDS011;5863;52.832;4.758;2022-09-12T06:06:53;27.45;;;20.60;;
11614;SDS011;5863;52.832;4.758;2022-09-12T06:09:22;24.50;;;19.95;;
11614;SDS011;5863;52.832;4.758;2022-09-12T06:11:49;28.40;;;21.02;;
11614;SDS011;5863;52.832;4.758;2022-09-12T06:14:16;26.77;;;20.98;;
11614;SDS011;5863;52.832;4.758;2022-09-12T06:16:43;25.48;;;20.55;;
11614;SDS011;5863;52.832;4.758;2022-09-12T06:19:12;24.05;;;19.67;;
11614;SDS011;5863;52.832;4.758;2022-09-12T06:21:40;26.98;;;19.85;;
11614;SDS011;5863;52.832;4.758;2022-09-12T06:24:07;26.60;;;19.45;;
11614;SDS011;5863;52.832;4.758;2022-09-12T06:26:35;27.70;;;20.25;;
11614;SDS011;5863;52.832;4.758;2022-09-12T06:29:02;27.10;;;20.48;;
11614;SDS011;5863;52.832;4.758;2022-09-12T06:31:29;29.00;;;20.23;;
11614;SDS011;5863;52.832;4.758;2022-09-12T06:33:58;28.40;;;20.95;;
11614;SDS011;5863;52.832;4.758;2022-09-12T06:36:27;25.85;;;19.65;;
11614;SDS011;5863;52.832;4.758;2022-09-12T06:38:55;24.50;;;19.13;;
11614;SDS011;5863;52.832;4.758;2022-09-12T06:41:25;25.05;;;20.02;;
11614;SDS011;5863;52.832;4.758;2022-09-12T06:43:54;24.02;;;19.83;;
11614;SDS011;5863;52.832;4.758;2022-09-12T06:46:20;26.65;;;19.33;;
11614;SDS011;5863;52.832;4.758;2022-09-12T06:48:47;27.50;;;19.92;;
11614;SDS011;5863;52.832;4.758;2022-09-12T06:51:15;25.23;;;18.92;;
11614;SDS011;5863;52.832;4.758;2022-09-12T06:53:44;24.88;;;19.35;;
11614;SDS011;5863;52.832;4.758;2022-09-12T06:56:12;24.95;;;19.48;;
11614;SDS011;5863;52.832;4.758;2022-09-12T06:58:40;26.40;;;20.15;;
11614;SDS011;5863;52.832;4.758;2022-09-12T07:01:10;25.27;;;19.63;;
11614;SDS011;5863;52.832;4.758;2022-09-12T07:03:39;26.77;;;19.70;;
11614;SDS011;5863;52.832;4.758;2022-09-12T07:06:07;25.05;;;19.27;;
11614;SDS011;5863;52.832;4.758;2022-09-12T07:08:35;23.98;;;18.85;;
11614;SDS011;5863;52.832;4.758;2022-09-12T07:11:07;22.75;;;18.70;;
11614;SDS011;5863;52.832;4.758;2022-09-12T07:13:35;24.13;;;19.13;;
11614;SDS011;5863;52.832;4.758;2022-09-12T07:16:02;24.13;;;19.00;;
11614;SDS011;5863;52.832;4.758;2022-09-12T07:18:30;24.55;;;18.98;;
11614;SDS011;5863;52.832;4.758;2022-09-12T07:20:58;26.10;;;20.02;;
11614;SDS011;5863;52.832;4.758;2022-09-12T07:23:25;23.42;;;18.88;;
11614;SDS011;5863;52.832;4.758;2022-09-12T07:25:53;23.35;;;19.05;;
11614;SDS011;5863;52.832;4.758;2022-09-12T07:28:21;22.90;;;18.25;;
11614;SDS011;5863;52.832;4.758;2022-09-12T07:30:48;23.58;;;18.45;;
11614;SDS011;5863;52.832;4.758;2022-09-12T07:33:15;23.90;;;18.45;;
11614;SDS011;5863;52.832;4.758;2022-09-12T07:35:43;23.75;;;18.25;;
11614;SDS011;5863;52.832;4.758;2022-09-12T07:38:10;23.27;;;17.23;;
11614;SDS011;5863;52.832;4.758;2022-09-12T07:40:36;20.40;;;16.75;;
11614;SDS011;5863;52.832;4.758;2022-09-12T07:43:04;18.30;;;15.95;;
11614;SDS011;5863;52.832;4.758;2022-09-12T07:45:31;21.50;;;16.40;;
11614;SDS011;5863;52.832;4.758;2022-09-12T07:47:58;21.08;;;15.75;;
11614;SDS011;5863;52.832;4.758;2022-09-12T07:50:25;17.65;;;15.05;;
11614;SDS011;5863;52.832;4.758;2022-09-12T07:52:53;18.05;;;15.32;;
11614;SDS011;5863;52.832;4.758;2022-09-12T07:55:20;17.58;;;15.20;;
11614;SDS011;5863;52.832;4.758;2022-09-12T07:57:49;18.25;;;14.90;;
11614;SDS011;5863;52.832;4.758;2022-09-12T08:00:16;17.38;;;14.30;;
11614;SDS011;5863;52.832;4.758;2022-09-12T08:02:43;17.10;;;15.00;;
11614;SDS011;5863;52.832;4.758;2022-09-12T08:05:10;17.00;;;14.30;;
11614;SDS011;5863;52.832;4.758;2022-09-12T08:07:37;16.08;;;14.18;;
11614;SDS011;5863;52.832;4.758;2022-09-12T08:10:05;17.80;;;14.88;;
11614;SDS011;5863;52.832;4.758;2022-09-12T08:12:32;21.17;;;15.05;;
11614;SDS011;5863;52.832;4.758;2022-09-12T08:14:59;16.90;;;14.30;;
11614;SDS011;5863;52.832;4.758;2022-09-12T08:17:26;17.98;;;14.00;;
11614;SDS011;5863;52.832;4.758;2022-09-12T08:19:53;15.80;;;14.13;;
11614;SDS011;5863;52.832;4.758;2022-09-12T08:22:20;16.05;;;14.23;;
11614;SDS011;5863;52.832;4.758;2022-09-12T08:24:47;16.95;;;13.73;;
11614;SDS011;5863;52.832;4.758;2022-09-12T08:27:15;18.65;;;14.80;;
11614;SDS011;5863;52.832;4.758;2022-09-12T08:29:42;15.25;;;12.70;;
11614;SDS011;5863;52.832;4.758;2022-09-12T08:32:09;17.58;;;14.38;;
11614;SDS011;5863;52.832;4.758;2022-09-12T08:34:36;19.35;;;14.13;;
11614;SDS011;5863;52.832;4.758;2022-09-12T08:37:02;17.25;;;13.80;;
11614;SDS011;5863;52.832;4.758;2022-09-12T08:39:29;17.25;;;13.40;;
11614;SDS011;5863;52.832;4.758;2022-09-12T08:41:57;20.33;;;13.27;;
11614;SDS011;5863;52.832;4.758;2022-09-12T08:47:29;18.27;;;13.07;;
11614;SDS011;5863;52.832;4.758;2022-09-12T08:50:01;18.17;;;13.15;;
11614;SDS011;5863;52.832;4.758;2022-09-12T08:52:35;17.17;;;12.30;;
11614;SDS011;5863;52.832;4.758;2022-09-12T08:55:12;17.67;;;13.18;;
11614;SDS011;5863;52.832;4.758;2022-09-12T08:57:56;14.60;;;12.18;;
11614;SDS011;5863;52.832;4.758;2022-09-12T09:00:28;13.73;;;11.90;;
11614;SDS011;5863;52.832;4.758;2022-09-12T09:03:11;15.60;;;11.93;;
11614;SDS011;5863;52.832;4.758;2022-09-12T09:06:02;16.88;;;12.75;;
11614;SDS011;5863;52.832;4.758;2022-09-12T09:08:44;15.65;;;11.98;;
11614;SDS011;5863;52.832;4.758;2022-09-12T09:11:18;16.48;;;12.52;;
11614;SDS011;5863;52.832;4.758;2022-09-12T09:13:55;14.15;;;11.07;;
11614;SDS011;5863;52.832;4.758;2022-09-12T09:16:52;18.67;;;12.75;;
11614;SDS011;5863;52.832;4.758;2022-09-12T09:19:22;15.25;;;11.63;;
11614;SDS011;5863;52.832;4.758;2022-09-12T09:21:53;18.60;;;12.18;;
11614;SDS011;5863;52.832;4.758;2022-09-12T09:24:31;13.27;;;10.68;;
11614;SDS011;5863;52.832;4.758;2022-09-12T09:27:03;15.10;;;11.05;;
11614;SDS011;5863;52.832;4.758;2022-09-12T09:29:35;11.57;;;8.15;;
11614;SDS011;5863;52.832;4.758;2022-09-12T09:32:11;9.25;;;7.07;;
11614;SDS011;5863;52.832;4.758;2022-09-12T09:34:46;8.77;;;6.10;;
11614;SDS011;5863;52.832;4.758;2022-09-12T09:37:14;9.80;;;7.78;;
11614;SDS011;5863;52.832;4.758;2022-09-12T09:39:48;9.40;;;8.00;;
11614;SDS011;5863;52.832;4.758;2022-09-12T09:42:28;8.80;;;6.90;;
11614;SDS011;5863;52.832;4.758;2022-09-12T09:45:10;7.40;;;6.57;;
11614;SDS011;5863;52.832;4.758;2022-09-12T09:47:41;7.50;;;5.97;;
11614;SDS011;5863;52.832;4.758;2022-09-12T09:50:12;11.23;;;6.75;;
11614;SDS011;5863;52.832;4.758;2022-09-12T09:52:41;7.90;;;6.05;;
11614;SDS011;5863;52.832;4.758;2022-09-12T09:55:11;8.10;;;6.70;;
11614;SDS011;5863;52.832;4.758;2022-09-12T09:57:42;7.80;;;6.40;;
11614;SDS011;5863;52.832;4.758;2022-09-12T10:03:04;8.23;;;5.97;;
11614;SDS011;5863;52.832;4.758;2022-09-12T10:05:48;9.32;;;5.68;;
11614;SDS011;5863;52.832;4.758;2022-09-12T10:08:21;6.70;;;5.60;;
11614;SDS011;5863;52.832;4.758;2022-09-12T10:10:57;5.40;;;4.90;;
11614;SDS011;5863;52.832;4.758;2022-09-12T10:13:29;5.75;;;4.97;;
11614;SDS011;5863;52.832;4.758;2022-09-12T10:16:00;5.28;;;4.78;;
11614;SDS011;5863;52.832;4.758;2022-09-12T10:18:39;6.00;;;5.13;;
11614;SDS011;5863;52.832;4.758;2022-09-12T10:21:14;8.10;;;5.13;;
11614;SDS011;5863;52.832;4.758;2022-09-12T10:23:44;5.57;;;4.88;;
11614;SDS011;5863;52.832;4.758;2022-09-12T10:26:13;7.05;;;5.63;;
11614;SDS011;5863;52.832;4.758;2022-09-12T10:28:43;6.63;;;5.07;;
11614;SDS011;5863;52.832;4.758;2022-09-12T10:31:13;6.90;;;5.18;;
11614;SDS011;5863;52.832;4.758;2022-09-12T10:33:54;5.63;;;4.40;;
11614;SDS011;5863;52.832;4.758;2022-09-12T10:36:24;6.90;;;4.55;;
11614;SDS011;5863;52.832;4.758;2022-09-12T10:39:00;6.90;;;4.15;;
11614;SDS011;5863;52.832;4.758;2022-09-12T10:41:32;5.53;;;4.75;;
11614;SDS011;5863;52.832;4.758;2022-09-12T10:44:04;5.97;;;5.30;;
11614;SDS011;5863;52.832;4.758;2022-09-12T10:46:33;7.72;;;5.15;;
11614;SDS011;5863;52.832;4.758;2022-09-12T10:52:14;5.43;;;4.93;;
11614;SDS011;5863;52.832;4.758;2022-09-12T10:54:44;4.95;;;4.25;;
11614;SDS011;5863;52.832;4.758;2022-09-12T11:00:12;4.88;;;4.05;;
11614;SDS011;5863;52.832;4.758;2022-09-12T11:02:52;7.40;;;4.70;;
11614;SDS011;5863;52.832;4.758;2022-09-12T11:05:34;6.05;;;4.30;;
11614;SDS011;5863;52.832;4.758;2022-09-12T11:08:13;5.53;;;4.63;;
11614;SDS011;5863;52.832;4.758;2022-09-12T11:10:47;6.35;;;4.47;;
11614;SDS011;5863;52.832;4.758;2022-09-12T11:13:24;8.23;;;6.15;;
11614;SDS011;5863;52.832;4.758;2022-09-12T11:16:08;6.70;;;5.55;;
11614;SDS011;5863;52.832;4.758;2022-09-12T11:18:50;9.45;;;6.97;;
11614;SDS011;5863;52.832;4.758;2022-09-12T11:21:32;7.57;;;6.65;;
11614;SDS011;5863;52.832;4.758;2022-09-12T11:24:14;8.23;;;7.22;;
11614;SDS011;5863;52.832;4.758;2022-09-12T11:27:05;10.00;;;6.57;;
11614;SDS011;5863;52.832;4.758;2022-09-12T11:29:48;9.05;;;7.25;;
11614;SDS011;5863;52.832;4.758;2022-09-12T11:32:31;8.55;;;7.65;;
11614;SDS011;5863;52.832;4.758;2022-09-12T11:35:18;8.52;;;7.50;;
11614;SDS011;5863;52.832;4.758;2022-09-12T11:40:44;8.88;;;7.97;;
11614;SDS011;5863;52.832;4.758;2022-09-12T11:43:20;10.07;;;7.35;;
11614;SDS011;5863;52.832;4.758;2022-09-12T11:45:52;11.20;;;9.02;;
11614;SDS011;5863;52.832;4.758;2022-09-12T11:48:28;11.57;;;8.20;;
11614;SDS011;5863;52.832;4.758;2022-09-12T11:51:04;9.43;;;7.90;;
11614;SDS011;5863;52.832;4.758;2022-09-12T11:53:39;8.55;;;7.55;;
11614;SDS011;5863;52.832;4.758;2022-09-12T11:56:11;10.63;;;7.20;;
11614;SDS011;5863;52.832;4.758;2022-09-12T11:58:42;11.55;;;8.77;;
11614;SDS011;5863;52.832;4.758;2022-09-12T12:01:13;12.10;;;8.13;;
11614;SDS011;5863;52.832;4.758;2022-09-12T12:03:45;9.88;;;8.40;;
11614;SDS011;5863;52.832;4.758;2022-09-12T12:06:14;11.10;;;8.40;;
11614;SDS011;5863;52.832;4.758;2022-09-12T12:08:45;9.93;;;8.07;;
11614;SDS011;5863;52.832;4.758;2022-09-12T12:11:14;9.18;;;7.40;;
11614;SDS011;5863;52.832;4.758;2022-09-12T12:13:52;8.70;;;7.80;;
11614;SDS011;5863;52.832;4.758;2022-09-12T12:16:26;10.32;;;8.30;;
11614;SDS011;5863;52.832;4.758;2022-09-12T12:18:56;9.88;;;7.80;;
11614;SDS011;5863;52.832;4.758;2022-09-12T12:21:33;8.25;;;7.22;;
11614;SDS011;5863;52.832;4.758;2022-09-12T12:24:14;9.70;;;6.78;;
11614;SDS011;5863;52.832;4.758;2022-09-12T12:26:54;8.40;;;7.03;;
11614;SDS011;5863;52.832;4.758;2022-09-12T12:29:36;10.93;;;7.13;;
11614;SDS011;5863;52.832;4.758;2022-09-12T12:32:21;9.20;;;6.60;;
11614;SDS011;5863;52.832;4.758;2022-09-12T12:35:00;6.70;;;5.72;;
11614;SDS011;5863;52.832;4.758;2022-09-12T12:37:55;6.90;;;6.05;;
11614;SDS011;5863;52.832;4.758;2022-09-12T12:40:26;7.05;;;5.53;;
11614;SDS011;5863;52.832;4.758;2022-09-12T12:42:58;8.35;;;5.30;;
11614;SDS011;5863;52.832;4.758;2022-09-12T12:45:45;5.30;;;4.72;;
11614;SDS011;5863;52.832;4.758;2022-09-12T12:48:14;4.68;;;4.18;;
11614;SDS011;5863;52.832;4.758;2022-09-12T12:50:44;6.07;;;4.00;;
11614;SDS011;5863;52.832;4.758;2022-09-12T12:53:16;4.13;;;3.72;;
11614;SDS011;5863;52.832;4.758;2022-09-12T12:55:49;4.43;;;3.80;;
11614;SDS011;5863;52.832;4.758;2022-09-12T12:58:22;4.40;;;4.00;;
11614;SDS011;5863;52.832;4.758;2022-09-12T13:01:02;8.05;;;4.32;;
11614;SDS011;5863;52.832;4.758;2022-09-12T13:03:35;5.28;;;3.70;;
11614;SDS011;5863;52.832;4.758;2022-09-12T13:06:04;5.40;;;2.97;;
11614;SDS011;5863;52.832;4.758;2022-09-12T13:08:33;3.17;;;2.88;;
11614;SDS011;5863;52.832;4.758;2022-09-12T13:11:06;3.08;;;2.60;;
11614;SDS011;5863;52.832;4.758;2022-09-12T13:13:38;3.63;;;3.08;;
11614;SDS011;5863;52.832;4.758;2022-09-12T13:16:08;4.10;;;2.83;;
11614;SDS011;5863;52.832;4.758;2022-09-12T13:18:38;2.85;;;2.63;;
11614;SDS011;5863;52.832;4.758;2022-09-12T13:21:08;5.35;;;2.75;;
11614;SDS011;5863;52.832;4.758;2022-09-12T13:23:37;4.55;;;2.53;;
11614;SDS011;5863;52.832;4.758;2022-09-12T13:26:26;2.33;;;2.13;;
11614;SDS011;5863;52.832;4.758;2022-09-12T13:29:07;4.53;;;2.70;;
11614;SDS011;5863;52.832;4.758;2022-09-12T13:31:34;2.08;;;1.88;;
11614;SDS011;5863;52.832;4.758;2022-09-12T13:34:03;2.72;;;2.20;;
11614;SDS011;5863;52.832;4.758;2022-09-12T13:36:49;3.28;;;2.00;;
11614;SDS011;5863;52.832;4.758;2022-09-12T13:39:27;2.25;;;2.05;;
11614;SDS011;5863;52.832;4.758;2022-09-12T13:42:03;5.03;;;2.20;;
11614;SDS011;5863;52.832;4.758;2022-09-12T13:44:47;2.17;;;1.80;;
11614;SDS011;5863;52.832;4.758;2022-09-12T13:47:17;3.90;;;2.28;;
11614;SDS011;5863;52.832;4.758;2022-09-12T13:49:50;2.08;;;1.65;;
11614;SDS011;5863;52.832;4.758;2022-09-12T13:52:17;2.17;;;1.40;;
11614;SDS011;5863;52.832;4.758;2022-09-12T13:54:47;1.50;;;1.38;;
11614;SDS011;5863;52.832;4.758;2022-09-12T13:57:28;1.63;;;1.52;;
11614;SDS011;5863;52.832;4.758;2022-09-12T13:59:57;1.80;;;1.65;;
11614;SDS011;5863;52.832;4.758;2022-09-12T14:02:26;2.40;;;1.90;;
11614;SDS011;5863;52.832;4.758;2022-09-12T14:04:55;1.83;;;1.70;;
11614;SDS011;5863;52.832;4.758;2022-09-12T14:07:36;2.38;;;1.90;;
11614;SDS011;5863;52.832;4.758;2022-09-12T14:10:13;3.22;;;1.80;;
11614;SDS011;5863;52.832;4.758;2022-09-12T14:12:45;2.67;;;1.90;;
11614;SDS011;5863;52.832;4.758;2022-09-12T14:15:15;3.83;;;1.80;;
11614;SDS011;5863;52.832;4.758;2022-09-12T14:17:47;5.22;;;1.80;;
11614;SDS011;5863;52.832;4.758;2022-09-12T14:20:17;2.17;;;1.90;;
11614;SDS011;5863;52.832;4.758;2022-09-12T14:22:47;4.57;;;2.60;;
11614;SDS011;5863;52.832;4.758;2022-09-12T14:25:15;4.10;;;2.28;;
11614;SDS011;5863;52.832;4.758;2022-09-12T14:27:47;2.85;;;2.00;;
11614;SDS011;5863;52.832;4.758;2022-09-12T14:30:19;2.22;;;2.00;;
11614;SDS011;5863;52.832;4.758;2022-09-12T14:33:05;4.28;;;2.30;;
11614;SDS011;5863;52.832;4.758;2022-09-12T14:35:44;2.65;;;1.85;;
11614;SDS011;5863;52.832;4.758;2022-09-12T14:38:13;3.20;;;1.98;;
11614;SDS011;5863;52.832;4.758;2022-09-12T14:40:48;4.18;;;2.15;;
11614;SDS011;5863;52.832;4.758;2022-09-12T14:43:25;2.42;;;2.22;;
11614;SDS011;5863;52.832;4.758;2022-09-12T14:45:55;5.75;;;2.53;;
11614;SDS011;5863;52.832;4.758;2022-09-12T14:48:24;3.00;;;2.33;;
11614;SDS011;5863;52.832;4.758;2022-09-12T14:50:52;4.53;;;2.50;;
11614;SDS011;5863;52.832;4.758;2022-09-12T14:53:23;4.07;;;2.55;;
11614;SDS011;5863;52.832;4.758;2022-09-12T14:55:57;5.15;;;2.75;;
11614;SDS011;5863;52.832;4.758;2022-09-12T14:58:31;3.67;;;2.60;;
11614;SDS011;5863;52.832;4.758;2022-09-12T15:00:59;3.40;;;2.90;;
11614;SDS011;5863;52.832;4.758;2022-09-12T15:03:29;3.35;;;2.50;;
11614;SDS011;5863;52.832;4.758;2022-09-12T15:05:58;3.25;;;2.17;;
11614;SDS011;5863;52.832;4.758;2022-09-12T15:08:27;4.18;;;2.40;;
11614;SDS011;5863;52.832;4.758;2022-09-12T15:10:54;3.58;;;2.13;;
11614;SDS011;5863;52.832;4.758;2022-09-12T15:13:22;2.97;;;2.30;;
11614;SDS011;5863;52.832;4.758;2022-09-12T15:15:55;3.97;;;2.60;;
11614;SDS011;5863;52.832;4.758;2022-09-12T15:18:24;3.28;;;2.70;;
11614;SDS011;5863;52.832;4.758;2022-09-12T15:20:53;2.63;;;2.30;;
11614;SDS011;5863;52.832;4.758;2022-09-12T15:23:31;4.18;;;2.10;;